sensor_id;sensor_type;location;lat;lon;timestamp;P1;durP1;ratioP1;P2;durP2;ratioP2
27939;SDS011;15275;51.716;14.324;2023-03-22T00:01:54;13.30;;;6.40;;
27939;SDS011;15275;51.716;14.324;2023-03-22T00:04:20;9.13;;;6.32;;
27939;SDS011;15275;51.716;14.324;2023-03-22T00:06:46;9.25;;;6.30;;
27939;SDS011;15275;51.716;14.324;2023-03-22T00:09:12;11.30;;;6.25;;
27939;SDS011;15275;51.716;14.324;2023-03-22T00:11:38;10.48;;;6.30;;
27939;SDS011;15275;51.716;14.324;2023-03-22T00:14:04;11.57;;;6.32;;
27939;SDS011;15275;51.716;14.324;2023-03-22T00:16:31;9.05;;;5.70;;
27939;SDS011;15275;51.716;14.324;2023-03-22T00:18:57;7.85;;;5.97;;
27939;SDS011;15275;51.716;14.324;2023-03-22T00:21:22;9.48;;;4.90;;
27939;SDS011;15275;51.716;14.324;2023-03-22T00:23:48;9.05;;;5.40;;
27939;SDS011;15275;51.716;14.324;2023-03-22T00:26:14;9.77;;;5.43;;
27939;SDS011;15275;51.716;14.324;2023-03-22T00:28:40;12.20;;;5.60;;
27939;SDS011;15275;51.716;14.324;2023-03-22T00:31:07;11.10;;;5.03;;
27939;SDS011;15275;51.716;14.324;2023-03-22T00:33:33;9.68;;;5.28;;
27939;SDS011;15275;51.716;14.324;2023-03-22T00:36:01;8.38;;;5.45;;
27939;SDS011;15275;51.716;14.324;2023-03-22T00:38:31;13.20;;;5.80;;
27939;SDS011;15275;51.716;14.324;2023-03-22T00:41:10;12.93;;;6.22;;
27939;SDS011;15275;51.716;14.324;2023-03-22T00:43:41;8.15;;;4.60;;
27939;SDS011;15275;51.716;14.324;2023-03-22T00:46:09;6.47;;;5.15;;
27939;SDS011;15275;51.716;14.324;2023-03-22T00:48:37;7.78;;;5.22;;
27939;SDS011;15275;51.716;14.324;2023-03-22T00:51:03;10.40;;;5.93;;
27939;SDS011;15275;51.716;14.324;2023-03-22T00:53:29;8.02;;;5.82;;
27939;SDS011;15275;51.716;14.324;2023-03-22T00:55:57;9.20;;;6.00;;
27939;SDS011;15275;51.716;14.324;2023-03-22T00:58:23;8.18;;;5.30;;
27939;SDS011;15275;51.716;14.324;2023-03-22T01:00:49;9.45;;;6.20;;
27939;SDS011;15275;51.716;14.324;2023-03-22T01:03:16;7.13;;;5.43;;
27939;SDS011;15275;51.716;14.324;2023-03-22T01:05:45;11.35;;;6.43;;
27939;SDS011;15275;51.716;14.324;2023-03-22T01:08:11;9.00;;;6.13;;
27939;SDS011;15275;51.716;14.324;2023-03-22T01:10:37;9.27;;;5.35;;
27939;SDS011;15275;51.716;14.324;2023-03-22T01:13:04;13.63;;;5.75;;
27939;SDS011;15275;51.716;14.324;2023-03-22T01:15:31;8.57;;;5.88;;
27939;SDS011;15275;51.716;14.324;2023-03-22T01:17:57;10.57;;;5.75;;
27939;SDS011;15275;51.716;14.324;2023-03-22T01:20:24;12.77;;;6.78;;
27939;SDS011;15275;51.716;14.324;2023-03-22T01:22:50;12.45;;;6.35;;
27939;SDS011;15275;51.716;14.324;2023-03-22T01:25:16;10.55;;;6.88;;
27939;SDS011;15275;51.716;14.324;2023-03-22T01:27:43;12.90;;;7.45;;
27939;SDS011;15275;51.716;14.324;2023-03-22T01:30:09;11.13;;;7.38;;
27939;SDS011;15275;51.716;14.324;2023-03-22T01:32:35;12.50;;;7.72;;
27939;SDS011;15275;51.716;14.324;2023-03-22T01:35:02;12.32;;;7.75;;
27939;SDS011;15275;51.716;14.324;2023-03-22T01:37:30;16.70;;;9.38;;
27939;SDS011;15275;51.716;14.324;2023-03-22T01:39:56;12.35;;;8.32;;
27939;SDS011;15275;51.716;14.324;2023-03-22T01:42:23;14.32;;;9.48;;
27939;SDS011;15275;51.716;14.324;2023-03-22T01:47:59;12.05;;;8.57;;
27939;SDS011;15275;51.716;14.324;2023-03-22T01:50:28;13.00;;;8.38;;
27939;SDS011;15275;51.716;14.324;2023-03-22T01:52:55;14.57;;;8.60;;
27939;SDS011;15275;51.716;14.324;2023-03-22T01:55:23;13.23;;;9.35;;
27939;SDS011;15275;51.716;14.324;2023-03-22T01:57:50;12.90;;;8.13;;
27939;SDS011;15275;51.716;14.324;2023-03-22T02:00:18;14.35;;;9.25;;
27939;SDS011;15275;51.716;14.324;2023-03-22T02:02:45;17.35;;;9.48;;
27939;SDS011;15275;51.716;14.324;2023-03-22T02:05:15;11.60;;;7.97;;
27939;SDS011;15275;51.716;14.324;2023-03-22T02:07:43;14.63;;;9.65;;
27939;SDS011;15275;51.716;14.324;2023-03-22T02:10:13;13.48;;;8.23;;
27939;SDS011;15275;51.716;14.324;2023-03-22T02:37:49;13.32;;;8.45;;
27939;SDS011;15275;51.716;14.324;2023-03-22T02:43:41;9.80;;;7.45;;
27939;SDS011;15275;51.716;14.324;2023-03-22T02:46:54;12.02;;;8.35;;
27939;SDS011;15275;51.716;14.324;2023-03-22T03:00:23;12.25;;;7.78;;
27939;SDS011;15275;51.716;14.324;2023-03-22T03:02:52;13.93;;;7.95;;
27939;SDS011;15275;51.716;14.324;2023-03-22T03:05:24;9.98;;;7.22;;
27939;SDS011;15275;51.716;14.324;2023-03-22T03:07:53;12.30;;;8.63;;
27939;SDS011;15275;51.716;14.324;2023-03-22T03:10:23;12.90;;;7.63;;
27939;SDS011;15275;51.716;14.324;2023-03-22T03:12:50;11.50;;;7.97;;
27939;SDS011;15275;51.716;14.324;2023-03-22T03:15:17;11.45;;;7.68;;
27939;SDS011;15275;51.716;14.324;2023-03-22T03:23:18;11.13;;;7.53;;
27939;SDS011;15275;51.716;14.324;2023-03-22T03:36:38;12.30;;;7.20;;
27939;SDS011;15275;51.716;14.324;2023-03-22T03:39:11;12.18;;;6.82;;
27939;SDS011;15275;51.716;14.324;2023-03-22T03:41:40;14.55;;;7.70;;
27939;SDS011;15275;51.716;14.324;2023-03-22T03:44:08;14.65;;;7.47;;
27939;SDS011;15275;51.716;14.324;2023-03-22T03:46:35;13.98;;;7.72;;
27939;SDS011;15275;51.716;14.324;2023-03-22T03:49:01;15.20;;;7.38;;
27939;SDS011;15275;51.716;14.324;2023-03-22T03:51:29;11.90;;;7.43;;
27939;SDS011;15275;51.716;14.324;2023-03-22T03:53:57;13.85;;;8.07;;
27939;SDS011;15275;51.716;14.324;2023-03-22T03:56:22;13.73;;;8.25;;
27939;SDS011;15275;51.716;14.324;2023-03-22T03:58:48;12.32;;;7.63;;
27939;SDS011;15275;51.716;14.324;2023-03-22T04:01:14;11.82;;;7.45;;
27939;SDS011;15275;51.716;14.324;2023-03-22T04:03:43;13.88;;;7.68;;
27939;SDS011;15275;51.716;14.324;2023-03-22T04:06:10;12.57;;;7.70;;
27939;SDS011;15275;51.716;14.324;2023-03-22T04:08:36;14.30;;;7.90;;
27939;SDS011;15275;51.716;14.324;2023-03-22T04:11:02;12.88;;;8.07;;
27939;SDS011;15275;51.716;14.324;2023-03-22T04:13:27;16.40;;;8.18;;
27939;SDS011;15275;51.716;14.324;2023-03-22T04:15:54;11.05;;;7.35;;
27939;SDS011;15275;51.716;14.324;2023-03-22T04:18:22;11.40;;;7.72;;
27939;SDS011;15275;51.716;14.324;2023-03-22T04:20:47;14.07;;;7.25;;
27939;SDS011;15275;51.716;14.324;2023-03-22T04:23:13;11.35;;;6.32;;
27939;SDS011;15275;51.716;14.324;2023-03-22T04:25:40;12.95;;;8.45;;
27939;SDS011;15275;51.716;14.324;2023-03-22T04:28:05;12.15;;;7.78;;
27939;SDS011;15275;51.716;14.324;2023-03-22T04:30:33;11.57;;;7.10;;
27939;SDS011;15275;51.716;14.324;2023-03-22T04:33:01;14.07;;;6.70;;
27939;SDS011;15275;51.716;14.324;2023-03-22T04:35:31;12.20;;;7.13;;
27939;SDS011;15275;51.716;14.324;2023-03-22T04:37:58;13.23;;;8.07;;
27939;SDS011;15275;51.716;14.324;2023-03-22T04:40:25;15.82;;;7.63;;
27939;SDS011;15275;51.716;14.324;2023-03-22T04:42:55;15.18;;;7.05;;
27939;SDS011;15275;51.716;14.324;2023-03-22T04:45:23;9.48;;;7.03;;
27939;SDS011;15275;51.716;14.324;2023-03-22T04:47:53;10.70;;;6.75;;
27939;SDS011;15275;51.716;14.324;2023-03-22T04:50:19;13.52;;;7.72;;
27939;SDS011;15275;51.716;14.324;2023-03-22T04:52:45;11.77;;;6.40;;
27939;SDS011;15275;51.716;14.324;2023-03-22T04:55:12;11.45;;;6.75;;
27939;SDS011;15275;51.716;14.324;2023-03-22T04:57:37;11.43;;;6.53;;
27939;SDS011;15275;51.716;14.324;2023-03-22T05:00:03;13.90;;;8.02;;
27939;SDS011;15275;51.716;14.324;2023-03-22T05:02:32;10.02;;;6.85;;
27939;SDS011;15275;51.716;14.324;2023-03-22T05:04:59;8.75;;;6.63;;
27939;SDS011;15275;51.716;14.324;2023-03-22T05:07:25;9.85;;;6.40;;
27939;SDS011;15275;51.716;14.324;2023-03-22T05:09:51;10.68;;;6.32;;
27939;SDS011;15275;51.716;14.324;2023-03-22T05:12:17;11.80;;;7.13;;
27939;SDS011;15275;51.716;14.324;2023-03-22T05:14:42;10.23;;;6.85;;
27939;SDS011;15275;51.716;14.324;2023-03-22T05:17:08;9.27;;;6.65;;
27939;SDS011;15275;51.716;14.324;2023-03-22T05:19:35;11.05;;;6.40;;
27939;SDS011;15275;51.716;14.324;2023-03-22T05:22:01;9.13;;;6.38;;
27939;SDS011;15275;51.716;14.324;2023-03-22T05:24:30;10.35;;;6.20;;
27939;SDS011;15275;51.716;14.324;2023-03-22T05:26:56;13.27;;;6.90;;
27939;SDS011;15275;51.716;14.324;2023-03-22T05:29:25;10.70;;;6.32;;
27939;SDS011;15275;51.716;14.324;2023-03-22T05:31:52;10.40;;;6.20;;
27939;SDS011;15275;51.716;14.324;2023-03-22T05:34:18;11.85;;;6.82;;
27939;SDS011;15275;51.716;14.324;2023-03-22T05:36:45;10.77;;;6.32;;
27939;SDS011;15275;51.716;14.324;2023-03-22T05:39:11;10.18;;;6.25;;
27939;SDS011;15275;51.716;14.324;2023-03-22T05:41:39;10.07;;;6.10;;
27939;SDS011;15275;51.716;14.324;2023-03-22T05:44:05;9.35;;;6.05;;
27939;SDS011;15275;51.716;14.324;2023-03-22T05:46:31;10.25;;;6.35;;
27939;SDS011;15275;51.716;14.324;2023-03-22T05:48:57;8.57;;;5.63;;
27939;SDS011;15275;51.716;14.324;2023-03-22T05:51:23;10.05;;;5.43;;
27939;SDS011;15275;51.716;14.324;2023-03-22T05:53:49;9.30;;;5.85;;
27939;SDS011;15275;51.716;14.324;2023-03-22T05:56:17;11.80;;;5.53;;
27939;SDS011;15275;51.716;14.324;2023-03-22T05:58:45;11.70;;;5.70;;
27939;SDS011;15275;51.716;14.324;2023-03-22T06:01:12;11.82;;;7.00;;
27939;SDS011;15275;51.716;14.324;2023-03-22T06:03:40;11.32;;;5.78;;
27939;SDS011;15275;51.716;14.324;2023-03-22T06:06:07;9.88;;;6.28;;
27939;SDS011;15275;51.716;14.324;2023-03-22T06:08:37;10.52;;;5.60;;
27939;SDS011;15275;51.716;14.324;2023-03-22T06:11:04;9.93;;;6.20;;
27939;SDS011;15275;51.716;14.324;2023-03-22T06:13:31;10.35;;;6.40;;
27939;SDS011;15275;51.716;14.324;2023-03-22T06:15:58;9.60;;;5.75;;
27939;SDS011;15275;51.716;14.324;2023-03-22T06:18:26;11.50;;;6.15;;
27939;SDS011;15275;51.716;14.324;2023-03-22T06:20:52;10.63;;;6.20;;
27939;SDS011;15275;51.716;14.324;2023-03-22T06:23:18;8.27;;;5.50;;
27939;SDS011;15275;51.716;14.324;2023-03-22T06:25:44;11.35;;;5.75;;
27939;SDS011;15275;51.716;14.324;2023-03-22T06:28:10;8.27;;;5.57;;
27939;SDS011;15275;51.716;14.324;2023-03-22T06:30:36;10.27;;;6.63;;
27939;SDS011;15275;51.716;14.324;2023-03-22T06:33:02;8.63;;;5.40;;
27939;SDS011;15275;51.716;14.324;2023-03-22T06:35:30;8.82;;;5.78;;
27939;SDS011;15275;51.716;14.324;2023-03-22T06:37:57;10.07;;;5.53;;
27939;SDS011;15275;51.716;14.324;2023-03-22T06:40:24;9.07;;;5.47;;
27939;SDS011;15275;51.716;14.324;2023-03-22T06:42:50;9.55;;;5.88;;
27939;SDS011;15275;51.716;14.324;2023-03-22T06:45:16;12.48;;;5.82;;
27939;SDS011;15275;51.716;14.324;2023-03-22T06:47:42;11.30;;;5.93;;
27939;SDS011;15275;51.716;14.324;2023-03-22T06:50:09;10.45;;;5.95;;
27939;SDS011;15275;51.716;14.324;2023-03-22T06:52:35;7.05;;;5.00;;
27939;SDS011;15275;51.716;14.324;2023-03-22T06:55:01;7.47;;;5.28;;
27939;SDS011;15275;51.716;14.324;2023-03-22T06:57:28;8.98;;;5.55;;
27939;SDS011;15275;51.716;14.324;2023-03-22T06:59:53;10.00;;;6.03;;
27939;SDS011;15275;51.716;14.324;2023-03-22T07:02:19;9.50;;;5.75;;
27939;SDS011;15275;51.716;14.324;2023-03-22T07:04:45;9.70;;;5.20;;
27939;SDS011;15275;51.716;14.324;2023-03-22T07:07:11;8.65;;;5.05;;
27939;SDS011;15275;51.716;14.324;2023-03-22T07:09:40;10.48;;;5.82;;
27939;SDS011;15275;51.716;14.324;2023-03-22T07:12:06;9.25;;;5.90;;
27939;SDS011;15275;51.716;14.324;2023-03-22T07:14:32;11.45;;;6.72;;
27939;SDS011;15275;51.716;14.324;2023-03-22T07:16:58;11.02;;;5.80;;
27939;SDS011;15275;51.716;14.324;2023-03-22T07:19:24;10.50;;;5.88;;
27939;SDS011;15275;51.716;14.324;2023-03-22T07:21:50;12.63;;;6.28;;
27939;SDS011;15275;51.716;14.324;2023-03-22T07:24:17;6.97;;;5.40;;
27939;SDS011;15275;51.716;14.324;2023-03-22T07:26:43;9.63;;;5.53;;
27939;SDS011;15275;51.716;14.324;2023-03-22T07:29:08;14.02;;;5.13;;
27939;SDS011;15275;51.716;14.324;2023-03-22T07:31:34;9.45;;;5.55;;
27939;SDS011;15275;51.716;14.324;2023-03-22T07:34:02;13.95;;;7.05;;
27939;SDS011;15275;51.716;14.324;2023-03-22T07:36:29;12.45;;;6.40;;
27939;SDS011;15275;51.716;14.324;2023-03-22T07:38:55;10.32;;;6.75;;
27939;SDS011;15275;51.716;14.324;2023-03-22T07:41:22;10.38;;;6.00;;
27939;SDS011;15275;51.716;14.324;2023-03-22T07:43:49;12.43;;;5.78;;
27939;SDS011;15275;51.716;14.324;2023-03-22T07:46:15;8.65;;;5.50;;
27939;SDS011;15275;51.716;14.324;2023-03-22T07:48:42;9.60;;;5.70;;
27939;SDS011;15275;51.716;14.324;2023-03-22T07:51:08;11.10;;;5.57;;
27939;SDS011;15275;51.716;14.324;2023-03-22T07:53:34;8.70;;;5.72;;
27939;SDS011;15275;51.716;14.324;2023-03-22T07:56:01;9.15;;;5.40;;
27939;SDS011;15275;51.716;14.324;2023-03-22T07:58:29;10.60;;;5.65;;
27939;SDS011;15275;51.716;14.324;2023-03-22T08:00:55;9.25;;;6.00;;
27939;SDS011;15275;51.716;14.324;2023-03-22T08:03:22;9.48;;;6.00;;
27939;SDS011;15275;51.716;14.324;2023-03-22T08:05:49;7.65;;;5.65;;
27939;SDS011;15275;51.716;14.324;2023-03-22T08:08:15;8.32;;;5.90;;
27939;SDS011;15275;51.716;14.324;2023-03-22T08:10:41;11.43;;;6.43;;
27939;SDS011;15275;51.716;14.324;2023-03-22T08:13:13;8.18;;;4.80;;
27939;SDS011;15275;51.716;14.324;2023-03-22T08:15:38;8.70;;;5.75;;
27939;SDS011;15275;51.716;14.324;2023-03-22T08:18:05;9.20;;;5.57;;
27939;SDS011;15275;51.716;14.324;2023-03-22T08:20:32;9.85;;;5.72;;
27939;SDS011;15275;51.716;14.324;2023-03-22T08:22:58;11.32;;;5.93;;
27939;SDS011;15275;51.716;14.324;2023-03-22T08:25:25;10.00;;;6.35;;
27939;SDS011;15275;51.716;14.324;2023-03-22T08:27:51;9.25;;;5.57;;
27939;SDS011;15275;51.716;14.324;2023-03-22T08:30:16;10.98;;;6.47;;
27939;SDS011;15275;51.716;14.324;2023-03-22T08:32:42;13.55;;;5.25;;
27939;SDS011;15275;51.716;14.324;2023-03-22T08:35:08;10.10;;;6.43;;
27939;SDS011;15275;51.716;14.324;2023-03-22T08:37:34;11.00;;;6.32;;
27939;SDS011;15275;51.716;14.324;2023-03-22T08:40:00;7.20;;;5.50;;
27939;SDS011;15275;51.716;14.324;2023-03-22T08:42:26;7.18;;;5.30;;
27939;SDS011;15275;51.716;14.324;2023-03-22T08:44:52;8.77;;;5.50;;
27939;SDS011;15275;51.716;14.324;2023-03-22T08:47:18;7.22;;;5.25;;
27939;SDS011;15275;51.716;14.324;2023-03-22T08:49:44;8.75;;;5.53;;
27939;SDS011;15275;51.716;14.324;2023-03-22T08:52:10;7.18;;;4.75;;
27939;SDS011;15275;51.716;14.324;2023-03-22T08:54:35;10.02;;;5.45;;
27939;SDS011;15275;51.716;14.324;2023-03-22T08:57:02;9.40;;;5.65;;
27939;SDS011;15275;51.716;14.324;2023-03-22T08:59:28;10.95;;;4.95;;
27939;SDS011;15275;51.716;14.324;2023-03-22T09:01:55;6.32;;;5.20;;
27939;SDS011;15275;51.716;14.324;2023-03-22T09:04:21;8.27;;;5.20;;
27939;SDS011;15275;51.716;14.324;2023-03-22T09:06:47;7.70;;;5.80;;
27939;SDS011;15275;51.716;14.324;2023-03-22T09:09:13;10.55;;;4.85;;
27939;SDS011;15275;51.716;14.324;2023-03-22T09:11:39;10.88;;;6.05;;
27939;SDS011;15275;51.716;14.324;2023-03-22T09:14:07;7.10;;;5.18;;
27939;SDS011;15275;51.716;14.324;2023-03-22T09:16:34;7.65;;;5.35;;
27939;SDS011;15275;51.716;14.324;2023-03-22T09:19:00;8.13;;;5.70;;
27939;SDS011;15275;51.716;14.324;2023-03-22T09:21:26;8.77;;;5.03;;
27939;SDS011;15275;51.716;14.324;2023-03-22T09:23:56;6.78;;;5.38;;
27939;SDS011;15275;51.716;14.324;2023-03-22T09:26:22;8.93;;;5.57;;
27939;SDS011;15275;51.716;14.324;2023-03-22T09:28:49;6.88;;;5.30;;
27939;SDS011;15275;51.716;14.324;2023-03-22T09:31:15;9.20;;;6.05;;
27939;SDS011;15275;51.716;14.324;2023-03-22T09:33:41;9.25;;;6.20;;
27939;SDS011;15275;51.716;14.324;2023-03-22T09:36:08;7.10;;;5.40;;
27939;SDS011;15275;51.716;14.324;2023-03-22T09:38:36;8.73;;;5.65;;
27939;SDS011;15275;51.716;14.324;2023-03-22T09:41:45;6.18;;;5.18;;
27939;SDS011;15275;51.716;14.324;2023-03-22T09:44:01;7.95;;;5.28;;
27939;SDS011;15275;51.716;14.324;2023-03-22T09:46:36;8.32;;;5.57;;
27939;SDS011;15275;51.716;14.324;2023-03-22T09:49:18;12.10;;;5.80;;
27939;SDS011;15275;51.716;14.324;2023-03-22T09:51:50;8.85;;;4.68;;
27939;SDS011;15275;51.716;14.324;2023-03-22T09:57:04;8.43;;;5.32;;
27939;SDS011;15275;51.716;14.324;2023-03-22T10:10:58;8.70;;;5.47;;
27939;SDS011;15275;51.716;14.324;2023-03-22T10:13:35;7.13;;;4.85;;
27939;SDS011;15275;51.716;14.324;2023-03-22T10:16:43;8.55;;;4.85;;
27939;SDS011;15275;51.716;14.324;2023-03-22T10:19:15;6.05;;;4.85;;
27939;SDS011;15275;51.716;14.324;2023-03-22T10:22:07;7.97;;;4.85;;
27939;SDS011;15275;51.716;14.324;2023-03-22T10:24:37;9.82;;;4.60;;
27939;SDS011;15275;51.716;14.324;2023-03-22T10:27:15;7.68;;;4.95;;
27939;SDS011;15275;51.716;14.324;2023-03-22T10:29:45;7.38;;;4.68;;
27939;SDS011;15275;51.716;14.324;2023-03-22T10:32:54;6.60;;;4.70;;
27939;SDS011;15275;51.716;14.324;2023-03-22T10:35:26;8.07;;;4.18;;
27939;SDS011;15275;51.716;14.324;2023-03-22T10:37:53;6.40;;;4.25;;
27939;SDS011;15275;51.716;14.324;2023-03-22T10:40:23;6.07;;;4.47;;
27939;SDS011;15275;51.716;14.324;2023-03-22T10:43:01;6.30;;;4.07;;
27939;SDS011;15275;51.716;14.324;2023-03-22T10:45:51;8.25;;;5.20;;
27939;SDS011;15275;51.716;14.324;2023-03-22T10:48:24;6.18;;;4.93;;
27939;SDS011;15275;51.716;14.324;2023-03-22T10:51:08;6.47;;;4.22;;
27939;SDS011;15275;51.716;14.324;2023-03-22T10:53:46;6.13;;;4.15;;
27939;SDS011;15275;51.716;14.324;2023-03-22T10:56:15;8.52;;;4.95;;
27939;SDS011;15275;51.716;14.324;2023-03-22T10:58:44;6.05;;;4.45;;
27939;SDS011;15275;51.716;14.324;2023-03-22T11:01:12;6.50;;;4.13;;
27939;SDS011;15275;51.716;14.324;2023-03-22T11:03:49;6.72;;;4.00;;
27939;SDS011;15275;51.716;14.324;2023-03-22T11:06:29;6.40;;;3.90;;
27939;SDS011;15275;51.716;14.324;2023-03-22T11:09:00;4.25;;;3.45;;
27939;SDS011;15275;51.716;14.324;2023-03-22T11:11:49;5.07;;;3.67;;
27939;SDS011;15275;51.716;14.324;2023-03-22T11:17:15;4.60;;;3.75;;
27939;SDS011;15275;51.716;14.324;2023-03-22T11:19:54;5.20;;;3.70;;
27939;SDS011;15275;51.716;14.324;2023-03-22T11:27:55;8.60;;;3.85;;
27939;SDS011;15275;51.716;14.324;2023-03-22T11:30:34;4.55;;;3.38;;
27939;SDS011;15275;51.716;14.324;2023-03-22T11:33:14;9.48;;;3.65;;
27939;SDS011;15275;51.716;14.324;2023-03-22T11:35:46;5.82;;;3.00;;
27939;SDS011;15275;51.716;14.324;2023-03-22T11:38:36;4.47;;;2.67;;
27939;SDS011;15275;51.716;14.324;2023-03-22T11:41:26;3.58;;;2.45;;
27939;SDS011;15275;51.716;14.324;2023-03-22T11:43:57;6.05;;;2.42;;
27939;SDS011;15275;51.716;14.324;2023-03-22T11:46:32;6.63;;;2.45;;
27939;SDS011;15275;51.716;14.324;2023-03-22T11:49:01;4.47;;;2.33;;
27939;SDS011;15275;51.716;14.324;2023-03-22T11:51:33;4.22;;;2.40;;
27939;SDS011;15275;51.716;14.324;2023-03-22T11:54:45;4.20;;;2.17;;
27939;SDS011;15275;51.716;14.324;2023-03-22T11:56:56;4.53;;;2.25;;
27939;SDS011;15275;51.716;14.324;2023-03-22T11:59:29;3.47;;;1.73;;
27939;SDS011;15275;51.716;14.324;2023-03-22T12:05:03;2.58;;;1.50;;
27939;SDS011;15275;51.716;14.324;2023-03-22T12:07:35;4.97;;;1.55;;
27939;SDS011;15275;51.716;14.324;2023-03-22T12:10:16;3.10;;;2.13;;
27939;SDS011;15275;51.716;14.324;2023-03-22T12:13:02;2.17;;;1.58;;
27939;SDS011;15275;51.716;14.324;2023-03-22T12:15:51;3.00;;;1.58;;
27939;SDS011;15275;51.716;14.324;2023-03-22T12:18:35;3.30;;;2.10;;
27939;SDS011;15275;51.716;14.324;2023-03-22T12:21:10;3.20;;;1.67;;
27939;SDS011;15275;51.716;14.324;2023-03-22T12:23:36;5.40;;;1.92;;
27939;SDS011;15275;51.716;14.324;2023-03-22T12:29:07;2.42;;;1.75;;
27939;SDS011;15275;51.716;14.324;2023-03-22T12:32:02;3.78;;;1.70;;
27939;SDS011;15275;51.716;14.324;2023-03-22T12:34:41;5.75;;;2.33;;
27939;SDS011;15275;51.716;14.324;2023-03-22T12:37:29;2.10;;;1.70;;
27939;SDS011;15275;51.716;14.324;2023-03-22T12:40:17;2.95;;;1.80;;
27939;SDS011;15275;51.716;14.324;2023-03-22T12:43:01;3.53;;;2.10;;
27939;SDS011;15275;51.716;14.324;2023-03-22T12:45:49;3.47;;;1.92;;
27939;SDS011;15275;51.716;14.324;2023-03-22T12:48:23;3.58;;;1.85;;
27939;SDS011;15275;51.716;14.324;2023-03-22T12:51:08;1.60;;;1.50;;
27939;SDS011;15275;51.716;14.324;2023-03-22T12:53:43;5.57;;;2.00;;
27939;SDS011;15275;51.716;14.324;2023-03-22T12:56:18;4.68;;;1.90;;
27939;SDS011;15275;51.716;14.324;2023-03-22T12:58:55;1.73;;;1.50;;
27939;SDS011;15275;51.716;14.324;2023-03-22T13:04:31;4.07;;;1.67;;
27939;SDS011;15275;51.716;14.324;2023-03-22T13:10:36;2.65;;;1.95;;
27939;SDS011;15275;51.716;14.324;2023-03-22T13:13:41;2.40;;;1.35;;
27939;SDS011;15275;51.716;14.324;2023-03-22T13:26:53;2.63;;;1.85;;
27939;SDS011;15275;51.716;14.324;2023-03-22T13:29:24;4.10;;;2.50;;
27939;SDS011;15275;51.716;14.324;2023-03-22T13:31:57;3.25;;;2.00;;
27939;SDS011;15275;51.716;14.324;2023-03-22T13:37:07;4.40;;;2.47;;
27939;SDS011;15275;51.716;14.324;2023-03-22T13:39:58;2.50;;;1.95;;
27939;SDS011;15275;51.716;14.324;2023-03-22T13:42:39;2.80;;;2.13;;
27939;SDS011;15275;51.716;14.324;2023-03-22T13:45:06;3.88;;;2.30;;
27939;SDS011;15275;51.716;14.324;2023-03-22T13:48:30;5.20;;;2.28;;
27939;SDS011;15275;51.716;14.324;2023-03-22T14:01:52;4.35;;;2.70;;
27939;SDS011;15275;51.716;14.324;2023-03-22T14:04:28;4.65;;;2.53;;
27939;SDS011;15275;51.716;14.324;2023-03-22T14:09:53;4.65;;;2.40;;
27939;SDS011;15275;51.716;14.324;2023-03-22T14:15:48;3.95;;;2.40;;
27939;SDS011;15275;51.716;14.324;2023-03-22T14:18:22;3.47;;;2.05;;
27939;SDS011;15275;51.716;14.324;2023-03-22T14:20:56;4.85;;;2.20;;
27939;SDS011;15275;51.716;14.324;2023-03-22T14:23:46;2.83;;;1.88;;
27939;SDS011;15275;51.716;14.324;2023-03-22T14:26:50;3.08;;;2.00;;
27939;SDS011;15275;51.716;14.324;2023-03-22T14:29:23;1.90;;;1.67;;
27939;SDS011;15275;51.716;14.324;2023-03-22T14:34:33;2.15;;;1.52;;
27939;SDS011;15275;51.716;14.324;2023-03-22T14:37:02;2.88;;;1.55;;
27939;SDS011;15275;51.716;14.324;2023-03-22T14:39:42;2.08;;;1.58;;
27939;SDS011;15275;51.716;14.324;2023-03-22T14:44:57;2.20;;;1.70;;
27939;SDS011;15275;51.716;14.324;2023-03-22T14:47:30;2.58;;;1.88;;
27939;SDS011;15275;51.716;14.324;2023-03-22T14:50:06;4.47;;;1.80;;
27939;SDS011;15275;51.716;14.324;2023-03-22T14:52:38;4.28;;;1.80;;
27939;SDS011;15275;51.716;14.324;2023-03-22T14:55:09;2.60;;;1.90;;
27939;SDS011;15275;51.716;14.324;2023-03-22T14:57:49;3.38;;;1.80;;
27939;SDS011;15275;51.716;14.324;2023-03-22T15:00:21;3.70;;;2.03;;
27939;SDS011;15275;51.716;14.324;2023-03-22T15:03:11;3.67;;;1.98;;
27939;SDS011;15275;51.716;14.324;2023-03-22T15:05:47;2.97;;;1.60;;
27939;SDS011;15275;51.716;14.324;2023-03-22T15:10:43;3.05;;;1.50;;
27939;SDS011;15275;51.716;14.324;2023-03-22T15:13:16;2.30;;;1.50;;
27939;SDS011;15275;51.716;14.324;2023-03-22T15:15:44;3.53;;;1.60;;
27939;SDS011;15275;51.716;14.324;2023-03-22T15:18:15;3.85;;;1.85;;
27939;SDS011;15275;51.716;14.324;2023-03-22T15:20:46;1.63;;;1.20;;
27939;SDS011;15275;51.716;14.324;2023-03-22T15:23:16;3.08;;;1.67;;
27939;SDS011;15275;51.716;14.324;2023-03-22T15:26:12;4.22;;;1.58;;
27939;SDS011;15275;51.716;14.324;2023-03-22T15:28:42;6.30;;;1.58;;
27939;SDS011;15275;51.716;14.324;2023-03-22T15:31:26;3.00;;;1.42;;
27939;SDS011;15275;51.716;14.324;2023-03-22T15:33:56;4.28;;;1.60;;
27939;SDS011;15275;51.716;14.324;2023-03-22T15:36:31;3.72;;;1.38;;
27939;SDS011;15275;51.716;14.324;2023-03-22T15:39:14;3.13;;;1.67;;
27939;SDS011;15275;51.716;14.324;2023-03-22T15:47:30;2.67;;;1.58;;
27939;SDS011;15275;51.716;14.324;2023-03-22T15:50:26;2.05;;;1.30;;
27939;SDS011;15275;51.716;14.324;2023-03-22T15:52:56;1.70;;;1.42;;
27939;SDS011;15275;51.716;14.324;2023-03-22T15:55:36;2.53;;;1.33;;
27939;SDS011;15275;51.716;14.324;2023-03-22T15:58:26;1.90;;;1.40;;
27939;SDS011;15275;51.716;14.324;2023-03-22T16:01:06;2.10;;;1.30;;
27939;SDS011;15275;51.716;14.324;2023-03-22T16:03:44;2.28;;;1.15;;
27939;SDS011;15275;51.716;14.324;2023-03-22T16:06:19;1.75;;;1.48;;
27939;SDS011;15275;51.716;14.324;2023-03-22T16:08:46;3.03;;;1.67;;
27939;SDS011;15275;51.716;14.324;2023-03-22T16:11:12;5.13;;;1.85;;
27939;SDS011;15275;51.716;14.324;2023-03-22T16:13:41;2.50;;;1.48;;
27939;SDS011;15275;51.716;14.324;2023-03-22T16:16:16;5.30;;;1.63;;
27939;SDS011;15275;51.716;14.324;2023-03-22T16:18:45;1.40;;;1.27;;
27939;SDS011;15275;51.716;14.324;2023-03-22T16:21:12;2.83;;;1.42;;
27939;SDS011;15275;51.716;14.324;2023-03-22T16:23:40;4.28;;;1.67;;
27939;SDS011;15275;51.716;14.324;2023-03-22T16:26:13;1.67;;;1.30;;
27939;SDS011;15275;51.716;14.324;2023-03-22T16:28:41;3.45;;;1.60;;
27939;SDS011;15275;51.716;14.324;2023-03-22T16:31:14;4.65;;;1.42;;
27939;SDS011;15275;51.716;14.324;2023-03-22T16:33:45;1.80;;;1.30;;
27939;SDS011;15275;51.716;14.324;2023-03-22T16:36:12;1.67;;;1.10;;
27939;SDS011;15275;51.716;14.324;2023-03-22T16:38:41;1.45;;;1.23;;
27939;SDS011;15275;51.716;14.324;2023-03-22T16:41:15;4.35;;;1.60;;
27939;SDS011;15275;51.716;14.324;2023-03-22T16:43:46;2.10;;;1.27;;
27939;SDS011;15275;51.716;14.324;2023-03-22T16:46:13;2.85;;;1.48;;
27939;SDS011;15275;51.716;14.324;2023-03-22T16:48:39;1.45;;;1.15;;
27939;SDS011;15275;51.716;14.324;2023-03-22T16:51:10;1.70;;;1.10;;
27939;SDS011;15275;51.716;14.324;2023-03-22T16:53:54;8.98;;;1.50;;
27939;SDS011;15275;51.716;14.324;2023-03-22T16:56:22;4.03;;;1.30;;
27939;SDS011;15275;51.716;14.324;2023-03-22T16:58:53;3.63;;;1.15;;
27939;SDS011;15275;51.716;14.324;2023-03-22T17:01:19;2.10;;;1.30;;
27939;SDS011;15275;51.716;14.324;2023-03-22T17:03:46;1.30;;;1.15;;
27939;SDS011;15275;51.716;14.324;2023-03-22T17:06:14;2.90;;;1.30;;
27939;SDS011;15275;51.716;14.324;2023-03-22T17:08:46;4.30;;;1.15;;
27939;SDS011;15275;51.716;14.324;2023-03-22T17:11:19;4.22;;;1.60;;